sensor_id;sensor_type;location;lat;lon;timestamp;P1;durP1;ratioP1;P2;durP2;ratioP2
22336;SDS011;14992;50.844;4.418;2023-05-10T00:02:25;12.13;;;5.97;;
22336;SDS011;14992;50.844;4.418;2023-05-10T00:04:56;9.68;;;5.38;;
22336;SDS011;14992;50.844;4.418;2023-05-10T00:07:24;12.20;;;6.50;;
22336;SDS011;14992;50.844;4.418;2023-05-10T00:09:53;11.68;;;6.32;;
22336;SDS011;14992;50.844;4.418;2023-05-10T00:12:22;9.80;;;5.53;;
22336;SDS011;14992;50.844;4.418;2023-05-10T00:14:51;11.23;;;6.95;;
22336;SDS011;14992;50.844;4.418;2023-05-10T00:17:20;12.30;;;5.95;;
22336;SDS011;14992;50.844;4.418;2023-05-10T00:19:49;12.90;;;6.57;;
22336;SDS011;14992;50.844;4.418;2023-05-10T00:22:19;10.38;;;6.07;;
22336;SDS011;14992;50.844;4.418;2023-05-10T00:24:48;13.90;;;7.05;;
22336;SDS011;14992;50.844;4.418;2023-05-10T00:27:18;10.98;;;6.15;;
22336;SDS011;14992;50.844;4.418;2023-05-10T00:29:47;9.95;;;6.32;;
22336;SDS011;14992;50.844;4.418;2023-05-10T00:32:16;12.63;;;6.93;;
22336;SDS011;14992;50.844;4.418;2023-05-10T00:34:45;13.05;;;6.80;;
22336;SDS011;14992;50.844;4.418;2023-05-10T00:37:14;12.45;;;6.45;;
22336;SDS011;14992;50.844;4.418;2023-05-10T00:39:44;13.27;;;6.80;;
22336;SDS011;14992;50.844;4.418;2023-05-10T00:42:13;11.90;;;6.53;;
22336;SDS011;14992;50.844;4.418;2023-05-10T00:44:42;12.88;;;7.30;;
22336;SDS011;14992;50.844;4.418;2023-05-10T00:47:11;12.18;;;7.55;;
22336;SDS011;14992;50.844;4.418;2023-05-10T00:49:40;12.85;;;6.93;;
22336;SDS011;14992;50.844;4.418;2023-05-10T00:52:10;14.70;;;7.43;;
22336;SDS011;14992;50.844;4.418;2023-05-10T00:54:39;10.55;;;7.15;;
22336;SDS011;14992;50.844;4.418;2023-05-10T00:57:09;13.10;;;7.05;;
22336;SDS011;14992;50.844;4.418;2023-05-10T00:59:39;15.10;;;8.10;;
22336;SDS011;14992;50.844;4.418;2023-05-10T01:02:08;11.48;;;7.57;;
22336;SDS011;14992;50.844;4.418;2023-05-10T01:04:36;15.05;;;9.25;;
22336;SDS011;14992;50.844;4.418;2023-05-10T01:07:06;11.98;;;8.32;;
22336;SDS011;14992;50.844;4.418;2023-05-10T01:09:36;12.63;;;7.88;;
22336;SDS011;14992;50.844;4.418;2023-05-10T01:12:05;16.65;;;7.82;;
22336;SDS011;14992;50.844;4.418;2023-05-10T01:14:36;17.40;;;7.50;;
22336;SDS011;14992;50.844;4.418;2023-05-10T01:17:06;15.80;;;7.95;;
22336;SDS011;14992;50.844;4.418;2023-05-10T01:19:38;13.75;;;7.95;;
22336;SDS011;14992;50.844;4.418;2023-05-10T01:22:11;15.40;;;7.53;;
22336;SDS011;14992;50.844;4.418;2023-05-10T01:25:05;13.90;;;7.10;;
22336;SDS011;14992;50.844;4.418;2023-05-10T01:27:52;14.23;;;8.68;;
22336;SDS011;14992;50.844;4.418;2023-05-10T01:30:50;17.02;;;8.32;;
22336;SDS011;14992;50.844;4.418;2023-05-10T01:33:39;11.63;;;8.13;;
22336;SDS011;14992;50.844;4.418;2023-05-10T01:36:16;15.23;;;9.48;;
22336;SDS011;14992;50.844;4.418;2023-05-10T01:38:55;13.23;;;8.85;;
22336;SDS011;14992;50.844;4.418;2023-05-10T01:41:32;14.90;;;8.07;;
22336;SDS011;14992;50.844;4.418;2023-05-10T01:44:10;15.48;;;9.80;;
22336;SDS011;14992;50.844;4.418;2023-05-10T01:46:47;14.93;;;9.43;;
22336;SDS011;14992;50.844;4.418;2023-05-10T01:49:23;14.57;;;7.97;;
22336;SDS011;14992;50.844;4.418;2023-05-10T01:51:54;16.60;;;9.57;;
22336;SDS011;14992;50.844;4.418;2023-05-10T01:54:28;14.95;;;9.85;;
22336;SDS011;14992;50.844;4.418;2023-05-10T01:56:58;15.52;;;8.70;;
22336;SDS011;14992;50.844;4.418;2023-05-10T01:59:33;15.73;;;9.38;;
22336;SDS011;14992;50.844;4.418;2023-05-10T02:02:06;15.63;;;8.73;;
22336;SDS011;14992;50.844;4.418;2023-05-10T02:04:40;18.63;;;8.05;;
22336;SDS011;14992;50.844;4.418;2023-05-10T02:07:10;14.05;;;8.32;;
22336;SDS011;14992;50.844;4.418;2023-05-10T02:09:40;15.70;;;8.95;;
22336;SDS011;14992;50.844;4.418;2023-05-10T02:12:14;14.68;;;8.27;;
22336;SDS011;14992;50.844;4.418;2023-05-10T02:14:44;15.43;;;9.25;;
22336;SDS011;14992;50.844;4.418;2023-05-10T02:17:15;16.98;;;8.65;;
22336;SDS011;14992;50.844;4.418;2023-05-10T02:19:46;15.43;;;8.13;;
22336;SDS011;14992;50.844;4.418;2023-05-10T02:22:20;14.25;;;8.30;;
22336;SDS011;14992;50.844;4.418;2023-05-10T02:24:52;15.38;;;8.07;;
22336;SDS011;14992;50.844;4.418;2023-05-10T02:27:23;15.10;;;8.98;;
22336;SDS011;14992;50.844;4.418;2023-05-10T02:29:53;15.60;;;8.70;;
22336;SDS011;14992;50.844;4.418;2023-05-10T02:32:24;14.15;;;8.25;;
22336;SDS011;14992;50.844;4.418;2023-05-10T02:34:55;14.15;;;7.93;;
22336;SDS011;14992;50.844;4.418;2023-05-10T02:37:25;15.45;;;8.48;;
22336;SDS011;14992;50.844;4.418;2023-05-10T02:39:55;17.33;;;8.35;;
22336;SDS011;14992;50.844;4.418;2023-05-10T02:42:26;14.73;;;8.50;;
22336;SDS011;14992;50.844;4.418;2023-05-10T02:44:59;13.38;;;7.85;;
22336;SDS011;14992;50.844;4.418;2023-05-10T02:47:29;14.75;;;6.95;;
22336;SDS011;14992;50.844;4.418;2023-05-10T02:50:00;15.88;;;8.23;;
22336;SDS011;14992;50.844;4.418;2023-05-10T02:52:35;14.88;;;7.88;;
22336;SDS011;14992;50.844;4.418;2023-05-10T02:55:08;13.07;;;8.23;;
22336;SDS011;14992;50.844;4.418;2023-05-10T02:57:41;14.15;;;7.82;;
22336;SDS011;14992;50.844;4.418;2023-05-10T03:00:14;14.45;;;8.18;;
22336;SDS011;14992;50.844;4.418;2023-05-10T03:02:44;12.18;;;7.43;;
22336;SDS011;14992;50.844;4.418;2023-05-10T03:05:14;13.02;;;6.80;;
22336;SDS011;14992;50.844;4.418;2023-05-10T03:07:44;13.13;;;7.10;;
22336;SDS011;14992;50.844;4.418;2023-05-10T03:10:13;17.80;;;8.00;;
22336;SDS011;14992;50.844;4.418;2023-05-10T03:13:01;14.40;;;7.97;;
22336;SDS011;14992;50.844;4.418;2023-05-10T03:15:42;15.57;;;8.52;;
22336;SDS011;14992;50.844;4.418;2023-05-10T03:18:21;13.13;;;6.82;;
22336;SDS011;14992;50.844;4.418;2023-05-10T03:20:55;14.18;;;6.95;;
22336;SDS011;14992;50.844;4.418;2023-05-10T03:23:33;11.77;;;7.00;;
22336;SDS011;14992;50.844;4.418;2023-05-10T03:26:05;12.43;;;7.10;;
22336;SDS011;14992;50.844;4.418;2023-05-10T03:28:35;15.52;;;7.40;;
22336;SDS011;14992;50.844;4.418;2023-05-10T03:31:06;16.08;;;7.78;;
22336;SDS011;14992;50.844;4.418;2023-05-10T03:33:36;15.90;;;8.25;;
22336;SDS011;14992;50.844;4.418;2023-05-10T03:36:18;15.45;;;7.72;;
22336;SDS011;14992;50.844;4.418;2023-05-10T03:38:47;14.63;;;8.13;;
22336;SDS011;14992;50.844;4.418;2023-05-10T03:41:17;15.85;;;9.73;;
22336;SDS011;14992;50.844;4.418;2023-05-10T03:43:47;19.25;;;9.55;;
22336;SDS011;14992;50.844;4.418;2023-05-10T03:46:16;17.70;;;9.82;;
22336;SDS011;14992;50.844;4.418;2023-05-10T03:48:45;20.13;;;9.38;;
22336;SDS011;14992;50.844;4.418;2023-05-10T03:51:14;16.17;;;8.88;;
22336;SDS011;14992;50.844;4.418;2023-05-10T03:53:45;22.95;;;10.10;;
22336;SDS011;14992;50.844;4.418;2023-05-10T03:56:14;20.15;;;10.70;;
22336;SDS011;14992;50.844;4.418;2023-05-10T03:58:42;22.67;;;11.07;;
22336;SDS011;14992;50.844;4.418;2023-05-10T04:01:11;17.92;;;9.50;;
22336;SDS011;14992;50.844;4.418;2023-05-10T04:03:40;24.05;;;11.70;;
22336;SDS011;14992;50.844;4.418;2023-05-10T04:06:11;22.00;;;9.57;;
22336;SDS011;14992;50.844;4.418;2023-05-10T04:08:40;21.85;;;10.57;;
22336;SDS011;14992;50.844;4.418;2023-05-10T04:11:12;19.88;;;10.25;;
22336;SDS011;14992;50.844;4.418;2023-05-10T04:13:41;21.33;;;10.73;;
22336;SDS011;14992;50.844;4.418;2023-05-10T04:16:10;23.58;;;10.77;;
22336;SDS011;14992;50.844;4.418;2023-05-10T04:18:39;21.75;;;11.40;;
22336;SDS011;14992;50.844;4.418;2023-05-10T04:21:11;20.70;;;10.90;;
22336;SDS011;14992;50.844;4.418;2023-05-10T04:23:40;23.92;;;11.65;;
22336;SDS011;14992;50.844;4.418;2023-05-10T04:26:09;25.35;;;11.75;;
22336;SDS011;14992;50.844;4.418;2023-05-10T04:28:39;24.35;;;12.98;;
22336;SDS011;14992;50.844;4.418;2023-05-10T04:31:09;20.77;;;10.82;;
22336;SDS011;14992;50.844;4.418;2023-05-10T04:33:38;22.77;;;12.07;;
22336;SDS011;14992;50.844;4.418;2023-05-10T04:36:07;26.02;;;11.40;;
22336;SDS011;14992;50.844;4.418;2023-05-10T04:38:36;23.80;;;13.02;;
22336;SDS011;14992;50.844;4.418;2023-05-10T04:41:05;23.02;;;10.93;;
22336;SDS011;14992;50.844;4.418;2023-05-10T04:43:35;28.08;;;12.65;;
22336;SDS011;14992;50.844;4.418;2023-05-10T04:46:06;24.80;;;12.60;;
22336;SDS011;14992;50.844;4.418;2023-05-10T04:48:35;28.27;;;13.07;;
22336;SDS011;14992;50.844;4.418;2023-05-10T04:51:04;21.27;;;11.55;;
22336;SDS011;14992;50.844;4.418;2023-05-10T04:53:33;23.70;;;13.23;;
22336;SDS011;14992;50.844;4.418;2023-05-10T04:56:02;25.27;;;12.75;;
22336;SDS011;14992;50.844;4.418;2023-05-10T04:58:32;24.50;;;11.55;;
22336;SDS011;14992;50.844;4.418;2023-05-10T05:01:04;28.13;;;12.70;;
22336;SDS011;14992;50.844;4.418;2023-05-10T05:03:37;28.27;;;13.02;;
22336;SDS011;14992;50.844;4.418;2023-05-10T05:06:06;27.05;;;13.88;;
22336;SDS011;14992;50.844;4.418;2023-05-10T05:08:35;23.65;;;12.82;;
22336;SDS011;14992;50.844;4.418;2023-05-10T05:11:04;25.77;;;13.48;;
22336;SDS011;14992;50.844;4.418;2023-05-10T05:13:33;27.92;;;13.70;;
22336;SDS011;14992;50.844;4.418;2023-05-10T05:16:02;27.00;;;13.30;;
22336;SDS011;14992;50.844;4.418;2023-05-10T05:18:33;23.98;;;12.32;;
22336;SDS011;14992;50.844;4.418;2023-05-10T05:21:02;25.30;;;12.77;;
22336;SDS011;14992;50.844;4.418;2023-05-10T05:23:31;24.95;;;14.02;;
22336;SDS011;14992;50.844;4.418;2023-05-10T05:25:59;24.67;;;13.60;;
22336;SDS011;14992;50.844;4.418;2023-05-10T05:28:28;24.15;;;13.90;;
22336;SDS011;14992;50.844;4.418;2023-05-10T05:30:59;25.15;;;12.63;;
22336;SDS011;14992;50.844;4.418;2023-05-10T05:33:28;25.13;;;12.65;;
22336;SDS011;14992;50.844;4.418;2023-05-10T05:35:59;29.90;;;13.75;;
22336;SDS011;14992;50.844;4.418;2023-05-10T05:38:29;19.90;;;10.77;;
22336;SDS011;14992;50.844;4.418;2023-05-10T05:40:57;15.05;;;9.00;;
22336;SDS011;14992;50.844;4.418;2023-05-10T05:43:26;13.90;;;8.13;;
22336;SDS011;14992;50.844;4.418;2023-05-10T05:45:55;13.55;;;8.23;;
22336;SDS011;14992;50.844;4.418;2023-05-10T05:48:25;15.52;;;8.05;;
22336;SDS011;14992;50.844;4.418;2023-05-10T05:50:54;12.95;;;7.32;;
22336;SDS011;14992;50.844;4.418;2023-05-10T05:53:25;18.48;;;9.07;;
22336;SDS011;14992;50.844;4.418;2023-05-10T05:55:54;15.32;;;8.50;;
22336;SDS011;14992;50.844;4.418;2023-05-10T05:58:25;15.20;;;7.82;;
22336;SDS011;14992;50.844;4.418;2023-05-10T06:00:55;14.07;;;7.03;;
22336;SDS011;14992;50.844;4.418;2023-05-10T06:03:24;10.35;;;6.28;;
22336;SDS011;14992;50.844;4.418;2023-05-10T06:05:53;15.75;;;8.40;;
22336;SDS011;14992;50.844;4.418;2023-05-10T06:08:22;13.77;;;8.45;;
22336;SDS011;14992;50.844;4.418;2023-05-10T06:10:52;23.83;;;9.10;;
22336;SDS011;14992;50.844;4.418;2023-05-10T06:13:21;15.27;;;9.15;;
22336;SDS011;14992;50.844;4.418;2023-05-10T06:15:50;17.73;;;9.75;;
22336;SDS011;14992;50.844;4.418;2023-05-10T06:18:19;14.82;;;8.40;;
22336;SDS011;14992;50.844;4.418;2023-05-10T06:20:49;16.00;;;8.27;;
22336;SDS011;14992;50.844;4.418;2023-05-10T06:23:18;16.73;;;8.25;;
22336;SDS011;14992;50.844;4.418;2023-05-10T06:25:48;14.15;;;7.97;;
22336;SDS011;14992;50.844;4.418;2023-05-10T06:28:18;17.45;;;7.50;;
22336;SDS011;14992;50.844;4.418;2023-05-10T06:30:47;13.02;;;6.97;;
22336;SDS011;14992;50.844;4.418;2023-05-10T06:33:16;14.65;;;6.47;;
22336;SDS011;14992;50.844;4.418;2023-05-10T06:35:45;13.50;;;6.40;;
22336;SDS011;14992;50.844;4.418;2023-05-10T06:38:14;11.50;;;4.78;;
22336;SDS011;14992;50.844;4.418;2023-05-10T06:40:43;7.05;;;4.35;;
22336;SDS011;14992;50.844;4.418;2023-05-10T06:43:12;6.97;;;4.65;;
22336;SDS011;14992;50.844;4.418;2023-05-10T06:45:42;7.03;;;4.10;;
22336;SDS011;14992;50.844;4.418;2023-05-10T06:48:11;6.13;;;3.72;;
22336;SDS011;14992;50.844;4.418;2023-05-10T06:50:40;8.32;;;4.70;;
22336;SDS011;14992;50.844;4.418;2023-05-10T06:53:09;8.18;;;3.47;;
22336;SDS011;14992;50.844;4.418;2023-05-10T06:55:39;8.57;;;5.57;;
22336;SDS011;14992;50.844;4.418;2023-05-10T06:58:07;7.90;;;4.32;;
22336;SDS011;14992;50.844;4.418;2023-05-10T07:00:36;9.35;;;4.28;;
22336;SDS011;14992;50.844;4.418;2023-05-10T07:03:08;6.90;;;3.88;;
22336;SDS011;14992;50.844;4.418;2023-05-10T07:05:38;6.72;;;3.97;;
22336;SDS011;14992;50.844;4.418;2023-05-10T07:08:07;5.43;;;4.10;;
22336;SDS011;14992;50.844;4.418;2023-05-10T07:10:36;8.20;;;4.97;;
22336;SDS011;14992;50.844;4.418;2023-05-10T07:13:05;6.50;;;4.45;;
22336;SDS011;14992;50.844;4.418;2023-05-10T07:15:34;9.15;;;5.05;;
22336;SDS011;14992;50.844;4.418;2023-05-10T07:18:03;11.15;;;5.70;;
22336;SDS011;14992;50.844;4.418;2023-05-10T07:20:35;12.35;;;5.53;;
22336;SDS011;14992;50.844;4.418;2023-05-10T07:23:04;14.60;;;6.30;;
22336;SDS011;14992;50.844;4.418;2023-05-10T07:25:33;12.95;;;5.82;;
22336;SDS011;14992;50.844;4.418;2023-05-10T07:28:02;10.18;;;5.22;;
22336;SDS011;14992;50.844;4.418;2023-05-10T07:30:31;10.95;;;5.93;;
22336;SDS011;14992;50.844;4.418;2023-05-10T07:33:00;10.85;;;6.50;;
22336;SDS011;14992;50.844;4.418;2023-05-10T07:35:29;10.98;;;5.65;;
22336;SDS011;14992;50.844;4.418;2023-05-10T07:37:59;9.43;;;5.40;;
22336;SDS011;14992;50.844;4.418;2023-05-10T07:40:28;15.70;;;8.38;;
22336;SDS011;14992;50.844;4.418;2023-05-10T07:42:58;14.52;;;6.70;;
22336;SDS011;14992;50.844;4.418;2023-05-10T07:45:28;12.68;;;6.93;;
22336;SDS011;14992;50.844;4.418;2023-05-10T07:47:58;15.23;;;6.90;;
22336;SDS011;14992;50.844;4.418;2023-05-10T07:50:27;14.75;;;7.00;;
22336;SDS011;14992;50.844;4.418;2023-05-10T07:52:56;12.48;;;6.63;;
22336;SDS011;14992;50.844;4.418;2023-05-10T07:55:27;11.32;;;6.43;;
22336;SDS011;14992;50.844;4.418;2023-05-10T07:57:56;15.57;;;6.43;;
22336;SDS011;14992;50.844;4.418;2023-05-10T08:00:27;16.40;;;8.00;;
22336;SDS011;14992;50.844;4.418;2023-05-10T08:02:56;9.82;;;5.60;;
22336;SDS011;14992;50.844;4.418;2023-05-10T08:05:26;9.48;;;5.57;;
22336;SDS011;14992;50.844;4.418;2023-05-10T08:07:54;10.50;;;5.22;;
22336;SDS011;14992;50.844;4.418;2023-05-10T08:10:25;12.05;;;6.25;;
22336;SDS011;14992;50.844;4.418;2023-05-10T08:12:54;11.88;;;5.43;;
22336;SDS011;14992;50.844;4.418;2023-05-10T08:15:25;13.15;;;5.70;;
22336;SDS011;14992;50.844;4.418;2023-05-10T08:17:54;8.55;;;5.32;;
22336;SDS011;14992;50.844;4.418;2023-05-10T08:20:23;12.10;;;5.60;;
22336;SDS011;14992;50.844;4.418;2023-05-10T08:22:52;12.20;;;5.72;;
22336;SDS011;14992;50.844;4.418;2023-05-10T08:25:22;10.50;;;5.47;;
22336;SDS011;14992;50.844;4.418;2023-05-10T08:27:52;10.95;;;5.38;;
22336;SDS011;14992;50.844;4.418;2023-05-10T08:30:21;11.13;;;5.40;;
22336;SDS011;14992;50.844;4.418;2023-05-10T08:32:50;7.22;;;4.72;;
22336;SDS011;14992;50.844;4.418;2023-05-10T08:35:19;15.07;;;5.25;;
22336;SDS011;14992;50.844;4.418;2023-05-10T08:37:48;8.30;;;4.95;;
22336;SDS011;14992;50.844;4.418;2023-05-10T08:40:17;12.02;;;5.05;;
22336;SDS011;14992;50.844;4.418;2023-05-10T08:42:49;8.10;;;4.38;;
22336;SDS011;14992;50.844;4.418;2023-05-10T08:45:23;9.40;;;4.72;;
22336;SDS011;14992;50.844;4.418;2023-05-10T08:47:55;6.97;;;4.72;;
22336;SDS011;14992;50.844;4.418;2023-05-10T08:50:24;6.38;;;3.90;;
22336;SDS011;14992;50.844;4.418;2023-05-10T08:52:54;8.52;;;4.03;;
22336;SDS011;14992;50.844;4.418;2023-05-10T08:55:25;8.57;;;5.50;;
22336;SDS011;14992;50.844;4.418;2023-05-10T08:57:56;8.27;;;4.47;;
22336;SDS011;14992;50.844;4.418;2023-05-10T09:00:25;7.93;;;4.45;;
22336;SDS011;14992;50.844;4.418;2023-05-10T09:02:54;5.28;;;3.45;;
22336;SDS011;14992;50.844;4.418;2023-05-10T09:05:24;9.30;;;4.40;;
22336;SDS011;14992;50.844;4.418;2023-05-10T09:07:53;6.50;;;3.97;;
22336;SDS011;14992;50.844;4.418;2023-05-10T09:10:22;6.60;;;4.00;;
22336;SDS011;14992;50.844;4.418;2023-05-10T09:12:56;9.35;;;4.07;;
22336;SDS011;14992;50.844;4.418;2023-05-10T09:15:25;7.47;;;4.10;;
22336;SDS011;14992;50.844;4.418;2023-05-10T09:17:54;9.65;;;5.03;;
22336;SDS011;14992;50.844;4.418;2023-05-10T09:20:25;9.38;;;5.20;;
22336;SDS011;14992;50.844;4.418;2023-05-10T09:22:54;8.07;;;4.65;;
22336;SDS011;14992;50.844;4.418;2023-05-10T09:25:23;11.35;;;4.53;;
22336;SDS011;14992;50.844;4.418;2023-05-10T09:27:52;8.48;;;5.03;;
22336;SDS011;14992;50.844;4.418;2023-05-10T09:30:26;7.53;;;4.07;;
22336;SDS011;14992;50.844;4.418;2023-05-10T09:32:56;6.63;;;4.05;;
22336;SDS011;14992;50.844;4.418;2023-05-10T09:35:27;9.27;;;4.70;;
22336;SDS011;14992;50.844;4.418;2023-05-10T09:38:04;6.00;;;3.58;;
22336;SDS011;14992;50.844;4.418;2023-05-10T09:40:33;5.93;;;3.80;;
22336;SDS011;14992;50.844;4.418;2023-05-10T09:43:02;7.22;;;3.40;;
22336;SDS011;14992;50.844;4.418;2023-05-10T09:45:35;5.28;;;3.60;;
22336;SDS011;14992;50.844;4.418;2023-05-10T09:48:05;6.53;;;3.50;;
22336;SDS011;14992;50.844;4.418;2023-05-10T09:50:34;6.63;;;3.47;;
22336;SDS011;14992;50.844;4.418;2023-05-10T09:53:03;6.45;;;3.35;;
22336;SDS011;14992;50.844;4.418;2023-05-10T09:55:39;6.88;;;3.15;;
22336;SDS011;14992;50.844;4.418;2023-05-10T10:00:43;7.40;;;4.25;;
22336;SDS011;14992;50.844;4.418;2023-05-10T10:03:15;4.95;;;3.03;;
22336;SDS011;14992;50.844;4.418;2023-05-10T10:05:45;5.82;;;3.25;;
22336;SDS011;14992;50.844;4.418;2023-05-10T10:08:15;5.53;;;3.80;;
22336;SDS011;14992;50.844;4.418;2023-05-10T10:10:44;4.63;;;3.33;;
22336;SDS011;14992;50.844;4.418;2023-05-10T10:13:14;4.47;;;3.20;;
22336;SDS011;14992;50.844;4.418;2023-05-10T10:15:45;5.22;;;4.05;;
22336;SDS011;14992;50.844;4.418;2023-05-10T10:18:18;6.97;;;4.30;;
22336;SDS011;14992;50.844;4.418;2023-05-10T10:20:50;6.43;;;4.30;;
22336;SDS011;14992;50.844;4.418;2023-05-10T10:23:20;4.90;;;3.45;;
22336;SDS011;14992;50.844;4.418;2023-05-10T10:25:50;5.18;;;3.30;;
22336;SDS011;14992;50.844;4.418;2023-05-10T10:28:23;6.25;;;3.55;;
22336;SDS011;14992;50.844;4.418;2023-05-10T10:30:57;5.15;;;3.50;;
22336;SDS011;14992;50.844;4.418;2023-05-10T10:33:46;6.07;;;3.45;;
22336;SDS011;14992;50.844;4.418;2023-05-10T10:36:24;4.75;;;3.65;;
22336;SDS011;14992;50.844;4.418;2023-05-10T10:38:55;5.95;;;3.92;;
22336;SDS011;14992;50.844;4.418;2023-05-10T10:46:59;4.68;;;3.70;;
22336;SDS011;14992;50.844;4.418;2023-05-10T10:49:42;4.25;;;3.38;;
22336;SDS011;14992;50.844;4.418;2023-05-10T10:52:21;6.88;;;3.63;;
22336;SDS011;14992;50.844;4.418;2023-05-10T10:54:57;6.47;;;3.50;;
22336;SDS011;14992;50.844;4.418;2023-05-10T10:57:28;4.80;;;3.40;;
22336;SDS011;14992;50.844;4.418;2023-05-10T11:02:50;3.85;;;2.85;;
22336;SDS011;14992;50.844;4.418;2023-05-10T11:05:23;5.63;;;3.35;;
22336;SDS011;14992;50.844;4.418;2023-05-10T11:07:54;6.40;;;3.58;;
22336;SDS011;14992;50.844;4.418;2023-05-10T11:10:24;5.80;;;3.35;;
22336;SDS011;14992;50.844;4.418;2023-05-10T11:12:58;5.40;;;3.33;;
22336;SDS011;14992;50.844;4.418;2023-05-10T11:15:29;4.90;;;3.28;;
22336;SDS011;14992;50.844;4.418;2023-05-10T11:18:00;5.60;;;4.00;;
22336;SDS011;14992;50.844;4.418;2023-05-10T11:20:49;5.53;;;3.97;;
22336;SDS011;14992;50.844;4.418;2023-05-10T11:23:18;4.88;;;3.83;;
22336;SDS011;14992;50.844;4.418;2023-05-10T11:25:48;6.80;;;3.53;;
22336;SDS011;14992;50.844;4.418;2023-05-10T11:28:17;6.18;;;4.15;;
22336;SDS011;14992;50.844;4.418;2023-05-10T11:30:47;5.70;;;3.65;;
22336;SDS011;14992;50.844;4.418;2023-05-10T11:33:17;4.93;;;3.67;;
22336;SDS011;14992;50.844;4.418;2023-05-10T11:35:47;4.97;;;3.35;;
22336;SDS011;14992;50.844;4.418;2023-05-10T11:38:16;6.25;;;4.18;;
22336;SDS011;14992;50.844;4.418;2023-05-10T11:40:46;6.65;;;4.85;;
22336;SDS011;14992;50.844;4.418;2023-05-10T11:43:15;8.25;;;6.40;;
22336;SDS011;14992;50.844;4.418;2023-05-10T11:45:44;6.95;;;4.43;;
22336;SDS011;14992;50.844;4.418;2023-05-10T11:48:13;7.10;;;4.53;;
22336;SDS011;14992;50.844;4.418;2023-05-10T11:50:45;5.30;;;4.70;;
22336;SDS011;14992;50.844;4.418;2023-05-10T11:53:14;7.65;;;6.13;;
22336;SDS011;14992;50.844;4.418;2023-05-10T11:55:43;4.88;;;3.63;;
22336;SDS011;14992;50.844;4.418;2023-05-10T11:58:12;4.68;;;4.03;;
22336;SDS011;14992;50.844;4.418;2023-05-10T12:00:41;4.22;;;3.72;;
22336;SDS011;14992;50.844;4.418;2023-05-10T12:03:10;7.50;;;5.32;;
22336;SDS011;14992;50.844;4.418;2023-05-10T12:05:39;7.13;;;5.65;;
22336;SDS011;14992;50.844;4.418;2023-05-10T12:08:14;4.75;;;4.00;;
22336;SDS011;14992;50.844;4.418;2023-05-10T12:10:44;4.43;;;4.00;;
22336;SDS011;14992;50.844;4.418;2023-05-10T12:13:13;6.22;;;4.43;;
22336;SDS011;14992;50.844;4.418;2023-05-10T12:15:43;4.53;;;3.83;;
22336;SDS011;14992;50.844;4.418;2023-05-10T12:18:12;7.05;;;4.45;;
22336;SDS011;14992;50.844;4.418;2023-05-10T12:20:42;6.22;;;5.07;;
22336;SDS011;14992;50.844;4.418;2023-05-10T12:23:11;7.72;;;6.00;;
22336;SDS011;14992;50.844;4.418;2023-05-10T12:25:42;6.45;;;4.28;;
22336;SDS011;14992;50.844;4.418;2023-05-10T12:28:11;6.68;;;4.72;;
22336;SDS011;14992;50.844;4.418;2023-05-10T12:30:40;5.88;;;4.65;;
22336;SDS011;14992;50.844;4.418;2023-05-10T12:33:10;5.60;;;4.43;;
22336;SDS011;14992;50.844;4.418;2023-05-10T12:38:26;6.63;;;4.00;;
22336;SDS011;14992;50.844;4.418;2023-05-10T12:40:59;5.93;;;3.90;;
22336;SDS011;14992;50.844;4.418;2023-05-10T12:43:29;6.63;;;4.68;;
22336;SDS011;14992;50.844;4.418;2023-05-10T12:45:58;6.50;;;4.72;;
22336;SDS011;14992;50.844;4.418;2023-05-10T12:48:33;8.00;;;5.40;;
22336;SDS011;14992;50.844;4.418;2023-05-10T12:51:03;6.55;;;4.72;;
22336;SDS011;14992;50.844;4.418;2023-05-10T12:53:37;6.80;;;4.65;;
22336;SDS011;14992;50.844;4.418;2023-05-10T12:56:11;6.30;;;4.05;;
22336;SDS011;14992;50.844;4.418;2023-05-10T12:58:40;7.75;;;4.82;;
22336;SDS011;14992;50.844;4.418;2023-05-10T13:01:15;8.15;;;5.43;;
22336;SDS011;14992;50.844;4.418;2023-05-10T13:03:45;8.32;;;6.15;;
22336;SDS011;14992;50.844;4.418;2023-05-10T13:06:14;7.38;;;5.30;;
22336;SDS011;14992;50.844;4.418;2023-05-10T13:08:42;8.15;;;5.18;;
22336;SDS011;14992;50.844;4.418;2023-05-10T13:11:13;6.25;;;5.22;;
22336;SDS011;14992;50.844;4.418;2023-05-10T13:13:43;8.95;;;5.10;;
22336;SDS011;14992;50.844;4.418;2023-05-10T13:16:13;6.20;;;4.75;;
22336;SDS011;14992;50.844;4.418;2023-05-10T13:18:42;14.38;;;10.00;;
22336;SDS011;14992;50.844;4.418;2023-05-10T13:21:11;6.68;;;5.28;;
22336;SDS011;14992;50.844;4.418;2023-05-10T13:23:40;5.18;;;3.97;;
22336;SDS011;14992;50.844;4.418;2023-05-10T13:26:09;6.22;;;3.83;;
22336;SDS011;14992;50.844;4.418;2023-05-10T13:28:39;4.22;;;3.30;;
22336;SDS011;14992;50.844;4.418;2023-05-10T13:31:08;6.32;;;5.32;;
22336;SDS011;14992;50.844;4.418;2023-05-10T13:33:37;6.15;;;3.78;;
22336;SDS011;14992;50.844;4.418;2023-05-10T13:36:06;8.35;;;7.00;;
22336;SDS011;14992;50.844;4.418;2023-05-10T13:38:36;6.13;;;3.67;;
22336;SDS011;14992;50.844;4.418;2023-05-10T13:41:04;6.30;;;3.72;;
22336;SDS011;14992;50.844;4.418;2023-05-10T13:43:33;6.35;;;4.75;;
22336;SDS011;14992;50.844;4.418;2023-05-10T13:46:04;6.18;;;4.78;;
22336;SDS011;14992;50.844;4.418;2023-05-10T13:48:33;7.72;;;4.22;;
22336;SDS011;14992;50.844;4.418;2023-05-10T13:51:05;7.63;;;4.38;;
22336;SDS011;14992;50.844;4.418;2023-05-10T13:53:34;7.28;;;5.10;;
22336;SDS011;14992;50.844;4.418;2023-05-10T13:56:03;6.97;;;5.22;;
22336;SDS011;14992;50.844;4.418;2023-05-10T13:58:32;9.20;;;5.72;;
22336;SDS011;14992;50.844;4.418;2023-05-10T14:01:02;7.28;;;5.72;;
22336;SDS011;14992;50.844;4.418;2023-05-10T14:03:33;6.35;;;4.93;;
22336;SDS011;14992;50.844;4.418;2023-05-10T14:06:03;6.55;;;5.03;;
22336;SDS011;14992;50.844;4.418;2023-05-10T14:08:34;7.07;;;5.00;;
22336;SDS011;14992;50.844;4.418;2023-05-10T14:11:04;9.00;;;5.68;;
22336;SDS011;14992;50.844;4.418;2023-05-10T14:13:33;9.23;;;5.90;;
22336;SDS011;14992;50.844;4.418;2023-05-10T14:16:02;8.55;;;6.32;;
22336;SDS011;14992;50.844;4.418;2023-05-10T14:18:33;8.25;;;5.75;;
22336;SDS011;14992;50.844;4.418;2023-05-10T14:21:02;10.15;;;6.63;;
22336;SDS011;14992;50.844;4.418;2023-05-10T14:23:32;8.02;;;6.32;;
22336;SDS011;14992;50.844;4.418;2023-05-10T14:26:01;11.88;;;7.30;;
22336;SDS011;14992;50.844;4.418;2023-05-10T14:28:30;11.02;;;7.47;;
22336;SDS011;14992;50.844;4.418;2023-05-10T14:30:59;11.68;;;7.88;;
22336;SDS011;14992;50.844;4.418;2023-05-10T14:33:30;11.10;;;8.52;;
22336;SDS011;14992;50.844;4.418;2023-05-10T14:35:59;12.02;;;8.65;;
22336;SDS011;14992;50.844;4.418;2023-05-10T14:38:30;14.95;;;9.73;;
22336;SDS011;14992;50.844;4.418;2023-05-10T14:40:58;13.25;;;9.80;;
22336;SDS011;14992;50.844;4.418;2023-05-10T14:43:28;10.27;;;7.47;;
22336;SDS011;14992;50.844;4.418;2023-05-10T14:45:57;16.35;;;8.07;;
22336;SDS011;14992;50.844;4.418;2023-05-10T14:48:26;14.23;;;8.43;;
22336;SDS011;14992;50.844;4.418;2023-05-10T14:50:56;13.13;;;8.20;;
22336;SDS011;14992;50.844;4.418;2023-05-10T14:53:25;13.63;;;8.43;;
22336;SDS011;14992;50.844;4.418;2023-05-10T14:55:54;13.63;;;8.60;;
22336;SDS011;14992;50.844;4.418;2023-05-10T14:58:23;14.05;;;8.45;;
22336;SDS011;14992;50.844;4.418;2023-05-10T15:00:52;16.00;;;9.95;;
22336;SDS011;14992;50.844;4.418;2023-05-10T15:03:21;14.00;;;9.15;;
22336;SDS011;14992;50.844;4.418;2023-05-10T15:05:51;13.85;;;9.00;;
22336;SDS011;14992;50.844;4.418;2023-05-10T15:08:21;12.85;;;8.73;;
22336;SDS011;14992;50.844;4.418;2023-05-10T15:10:50;10.80;;;7.30;;
22336;SDS011;14992;50.844;4.418;2023-05-10T15:13:22;12.57;;;6.63;;